Poquonock, Connecticut
Current Conditions -  °F | °C
As of 10:51 AM on Wednesday 22 Oct 2014 (Local Time) from KBDL Reporting Station
Overcast Overcast  
Wind Chill: 56°   Ceiling: 1800
Heat Index: 56°   Visibility: 10mi
Dew Point: 47°   Wind: 16mph
Humidity: 72%   Direction: 10°N
Pressure: 29.99"   Gusts: NA
Location:  41.9°N, 72.68°W
Report Text: KBDL 221451Z 01014KT 10SM OVC018 13/08 A2999 RMK AO2 SLP155 T01330083 50002
Loading
Personal Weather Stations






























Interactive Weather Map
Tropical Storm Tracking
New forecast layout! Learn more

10-Day Weather Forecast

Advertisements
Track Severe Weather on mobile